Time;durP1;ratioP1;P1;durP2;ratioP2;P2;SDS_P1;SDS_P2;PMS_P1;PMS_P2;Temp;Humidity;BMP_temperature;BMP_pressure;BME280_temperature;BME280_humidity;BME280_pressure;Samples;Min_cycle;Max_cycle;Signal;HPM_P1;HPM_P2
2023/07/27 00:01:39;;;;;;;5.03;4.63;;;11.70;99.90;;;12.40;100.00;97865.31;10377105;28;20269;-82
2023/07/27 00:06:43;;;;;;;5.30;4.80;;;11.70;99.90;;;12.35;100.00;97865.88;10384444;28;20309;-82
2023/07/27 00:11:47;;;;;;;5.03;4.57;;;11.70;99.90;;;12.32;100.00;97861.47;10374055;28;20229;-83
2023/07/27 00:16:51;;;;;;;5.25;4.75;;;11.70;99.90;;;12.18;100.00;97854.78;10368259;28;20669;-80
2023/07/27 00:21:55;;;;;;;5.93;4.78;;;11.50;99.90;;;12.19;100.00;97856.56;10386372;28;20233;-82
2023/07/27 00:26:58;;;;;;;5.35;4.72;;;11.50;99.90;;;12.11;100.00;97848.47;10366937;28;20227;-83
2023/07/27 00:32:03;;;;;;;5.07;4.53;;;11.50;99.90;;;12.15;100.00;97852.94;10378152;28;20226;-80
2023/07/27 00:37:07;;;;;;;4.88;4.53;;;11.50;99.90;;;12.22;100.00;97848.09;10384617;28;20234;-80
2023/07/27 00:42:10;;;;;;;5.07;4.65;;;11.50;99.90;;;12.08;100.00;97838.06;10376406;28;20219;-80
2023/07/27 00:47:15;;;;;;;5.07;4.68;;;11.40;99.90;;;12.03;100.00;97839.50;10376041;28;20223;-82
2023/07/27 00:52:18;;;;;;;5.18;4.78;;;11.30;99.90;;;12.03;100.00;97831.81;10366944;28;20246;-81
2023/07/27 00:57:22;;;;;;;5.50;5.00;;;11.40;99.90;;;12.13;100.00;97828.94;10370310;28;20656;-81
2023/07/27 01:02:26;;;;;;;5.22;4.53;;;11.50;99.90;;;12.20;100.00;97824.13;10375895;28;20234;-82
2023/07/27 01:07:30;;;;;;;5.35;4.80;;;11.50;99.90;;;11.94;100.00;97805.75;10379788;28;20229;-81
2023/07/27 01:12:39;;;;;;;5.32;4.88;;;11.30;99.90;;;11.75;100.00;97803.00;10373825;28;20253;-83
2023/07/27 01:17:50;;;;;;;5.75;5.28;;;11.20;99.90;;;11.79;100.00;97802.34;10376259;28;20257;-81
2023/07/27 01:23:50;;;;;;;4.63;4.22;;;11.30;99.90;;;11.84;100.00;97800.91;10355178;28;20247;-82
2023/07/27 01:29:08;;;;;;;5.13;4.72;;;11.30;99.90;;;11.94;100.00;97793.81;10328089;28;20655;-82
2023/07/27 01:34:18;;;;;;;6.20;4.78;;;11.30;99.90;;;11.85;100.00;97784.75;10368716;28;20226;-82
2023/07/27 01:39:26;;;;;;;5.13;4.63;;;11.30;99.90;;;11.94;100.00;97775.00;10365541;28;20715;-81
2023/07/27 01:44:32;;;;;;;4.97;4.57;;;11.30;99.90;;;11.87;100.00;97772.94;10361449;28;20254;-80
2023/07/27 01:49:40;;;;;;;5.22;4.82;;;11.30;99.90;;;12.00;100.00;97766.75;10370663;28;20755;-81
2023/07/27 01:54:44;;;;;;;5.07;4.65;;;11.40;99.90;;;12.10;100.00;97772.41;10368818;28;20222;-81
2023/07/27 01:59:48;;;;;;;5.72;5.22;;;11.50;99.90;;;12.10;100.00;97766.38;10373086;28;20786;-80
2023/07/27 02:04:53;;;;;;;5.60;5.00;;;11.50;99.90;;;12.11;100.00;97763.03;10371949;28;20230;-80
2023/07/27 02:09:56;;;;;;;5.28;4.88;;;11.40;99.90;;;12.09;100.00;97752.72;10374370;28;20230;-83
2023/07/27 02:15:06;;;;;;;6.45;4.80;;;11.50;99.90;;;12.15;100.00;97745.31;10357983;28;20234;-80
2023/07/27 02:20:14;;;;;;;5.55;5.05;;;11.40;99.90;;;12.12;100.00;97740.03;10370122;28;20317;-81
2023/07/27 02:25:18;;;;;;;5.95;4.85;;;11.40;99.90;;;12.05;100.00;97738.00;10379912;28;20256;-80
2023/07/27 02:30:21;;;;;;;5.70;5.20;;;11.30;99.90;;;12.02;100.00;97732.72;10377277;28;20230;-81
2023/07/27 02:35:26;;;;;;;5.22;4.72;;;11.40;99.90;;;12.07;100.00;97726.13;10373205;28;20230;-81
2023/07/27 02:40:29;;;;;;;5.30;4.88;;;11.40;99.90;;;12.07;100.00;97725.25;10375572;28;20229;-81
2023/07/27 02:45:34;;;;;;;5.50;5.00;;;11.40;99.90;;;12.02;100.00;97729.25;10379521;28;20253;-80
2023/07/27 02:50:38;;;;;;;5.43;4.93;;;11.40;99.90;;;12.07;100.00;97725.25;10381965;28;20218;-81
2023/07/27 02:55:42;;;;;;;5.10;4.70;;;11.40;99.90;;;12.05;100.00;97720.06;10384047;28;20254;-81
2023/07/27 03:00:52;;;;;;;6.55;4.97;;;11.40;99.90;;;12.02;100.00;97719.91;10378156;28;20218;-82
2023/07/27 03:06:02;;;;;;;5.55;5.03;;;11.30;99.90;;;12.06;100.00;97719.25;10380651;28;20232;-79
2023/07/27 03:11:06;;;;;;;4.78;4.35;;;11.40;99.90;;;11.89;100.00;97713.31;10369070;28;20230;-80
2023/07/27 03:16:10;;;;;;;4.72;4.32;;;11.20;99.90;;;11.82;100.00;97713.78;10364907;28;20995;-82
2023/07/27 03:21:15;;;;;;;4.45;4.05;;;11.20;99.90;;;11.84;100.00;97708.72;10365366;28;20254;-81
2023/07/27 03:26:20;;;;;;;4.97;4.57;;;11.20;99.90;;;11.85;100.00;97713.97;10372659;28;20620;-80
2023/07/27 03:31:26;;;;;;;5.13;4.72;;;11.20;99.90;;;11.92;100.00;97710.00;10360448;28;20226;-81
2023/07/27 03:36:31;;;;;;;5.50;5.03;;;11.30;99.90;;;11.97;100.00;97707.69;10374088;28;20237;-81
2023/07/27 03:41:35;;;;;;;5.38;4.88;;;11.30;99.90;;;12.01;100.00;97710.47;10370409;28;20247;-81
2023/07/27 03:46:39;;;;;;;5.20;4.80;;;11.40;99.90;;;12.01;100.00;97699.34;10376136;28;20256;-81
2023/07/27 03:51:43;;;;;;;5.22;4.72;;;11.40;99.90;;;12.13;100.00;97705.06;10382522;28;20226;-81
2023/07/27 03:56:47;;;;;;;5.10;4.60;;;11.50;99.90;;;12.23;100.00;97701.25;10381234;28;20227;-82
2023/07/27 04:01:50;;;;;;;5.55;5.00;;;11.50;99.90;;;12.26;100.00;97701.41;10376379;28;20245;-82
2023/07/27 04:06:55;;;;;;;5.70;5.10;;;11.50;99.90;;;12.37;99.38;97695.13;10378320;28;20622;-81
2023/07/27 04:12:01;;;;;;;5.22;4.80;;;11.50;99.90;;;12.25;100.00;97686.84;10378250;28;20226;-80
2023/07/27 04:17:06;;;;;;;5.57;5.13;;;11.40;99.90;;;12.27;100.00;97686.09;10376173;28;20222;-82
2023/07/27 04:22:10;;;;;;;5.50;5.00;;;11.50;99.90;;;12.22;100.00;97678.97;10376537;28;20230;-81
2023/07/27 04:27:14;;;;;;;5.25;4.53;;;11.60;99.90;;;12.33;100.00;97677.81;10374997;28;20226;-81
2023/07/27 04:32:18;;;;;;;4.85;4.43;;;11.60;99.90;;;12.43;100.00;97674.88;10378870;28;20223;-81
2023/07/27 04:37:22;;;;;;;5.28;4.78;;;11.80;99.90;;;12.49;100.00;97670.03;10381849;28;20258;-81
2023/07/27 04:42:26;;;;;;;5.22;4.82;;;11.90;99.90;;;12.57;100.00;97666.16;10379452;28;20222;-82
2023/07/27 04:47:29;;;;;;;5.72;4.90;;;12.00;99.90;;;12.67;99.03;97674.25;10376199;28;20306;-81
2023/07/27 04:52:34;;;;;;;5.35;4.50;;;11.90;99.90;;;12.74;99.26;97660.91;10373787;28;20238;-81
2023/07/27 04:57:37;;;;;;;5.55;5.05;;;12.00;99.90;;;12.88;100.00;97648.69;10378435;28;20292;-81
2023/07/27 05:02:41;;;;;;;5.40;4.82;;;12.20;99.90;;;13.01;99.57;97648.44;10367122;28;20643;-82
2023/07/27 05:07:52;;;;;;;5.50;4.72;;;12.40;99.90;;;13.15;98.72;97638.78;10367844;28;20237;-83
2023/07/27 05:12:55;;;;;;;5.57;4.88;;;12.40;99.90;;;13.21;98.44;97631.34;10368521;28;20226;-82
2023/07/27 05:17:59;;;;;;;5.00;4.60;;;12.50;99.90;;;13.36;97.30;97629.44;10383839;28;20222;-82
2023/07/27 05:23:04;;;;;;;4.88;4.38;;;12.70;99.90;;;13.69;97.40;97623.97;10373998;28;20223;-81
2023/07/27 05:28:07;;;;;;;6.88;6.28;;;13.00;99.90;;;13.93;95.57;97630.09;10374125;28;20234;-80
2023/07/27 05:33:10;;;;;;;5.15;4.55;;;13.10;99.90;;;14.04;94.14;97627.97;10373421;28;20226;-80
2023/07/27 05:38:15;;;;;;;5.20;4.47;;;13.20;99.90;;;14.05;94.16;97626.25;10369921;28;20226;-82
2023/07/27 05:43:19;;;;;;;4.90;4.50;;;13.20;99.90;;;14.16;92.10;97617.28;10363999;28;20256;-81
2023/07/27 05:48:22;;;;;;;4.55;4.15;;;13.30;99.90;;;14.38;92.62;97614.72;10360976;28;20229;-80
2023/07/27 05:53:27;;;;;;;4.53;4.13;;;13.50;99.90;;;14.48;92.78;97612.50;10368630;28;20779;-81
2023/07/27 05:58:30;;;;;;;5.28;4.55;;;13.60;99.90;;;14.74;92.54;97628.97;10360675;28;20226;-80
2023/07/27 06:03:35;;;;;;;5.07;4.65;;;13.90;99.90;;;14.93;91.70;97620.19;10361745;28;20255;-82
2023/07/27 06:08:41;;;;;;;4.25;3.95;;;14.10;99.90;;;15.20;91.01;97626.34;10355599;28;20225;-81
2023/07/27 06:13:45;;;;;;;4.80;4.30;;;14.30;99.90;;;15.32;89.73;97624.19;10370541;28;20231;-81
2023/07/27 06:18:49;;;;;;;4.90;4.50;;;14.50;99.90;;;15.51;91.10;97622.25;10353473;28;20234;-81
2023/07/27 06:23:54;;;;;;;5.15;4.65;;;14.70;99.90;;;15.66;88.50;97622.75;10353371;28;20230;-82
2023/07/27 06:28:58;;;;;;;4.95;4.50;;;14.80;99.90;;;15.67;89.69;97629.63;10351544;28;20696;-82
2023/07/27 06:34:01;;;;;;;6.82;6.15;;;14.80;99.90;;;15.76;88.05;97629.09;10360922;28;20659;-82
2023/07/27 06:39:07;;;;;;;8.13;7.35;;;15.00;99.90;;;15.92;88.74;97628.78;10365392;28;20231;-83
2023/07/27 06:44:10;;;;;;;6.20;5.57;;;15.10;99.90;;;16.20;90.01;97621.94;10364040;28;20945;-81
2023/07/27 06:49:13;;;;;;;5.10;4.50;;;15.40;99.90;;;16.94;88.64;97608.63;10355188;28;20229;-81
2023/07/27 06:54:18;;;;;;;5.63;4.07;;;16.10;99.90;;;17.86;83.76;97601.63;10349804;28;20317;-81
2023/07/27 06:59:22;;;;;;;4.53;4.03;;;16.90;99.90;;;18.78;81.17;97595.94;10359886;28;20254;-82
2023/07/27 07:04:25;;;;;;;4.07;3.47;;;17.80;99.90;;;19.43;74.95;97594.56;10357975;28;20230;-82
2023/07/27 07:09:32;;;;;;;4.45;3.70;;;18.50;99.90;;;19.76;73.88;97584.81;10364413;28;20250;-83
2023/07/27 07:14:38;;;;;;;3.45;3.22;;;18.70;99.90;;;20.08;71.43;97574.06;10348917;28;20233;-82
2023/07/27 07:19:42;;;;;;;4.05;3.13;;;19.10;99.90;;;19.91;70.66;97571.19;10348923;28;20234;-81
2023/07/27 07:24:47;;;;;;;3.20;2.85;;;19.00;99.90;;;20.01;69.62;97567.91;10368141;28;20229;-81
2023/07/27 07:29:50;;;;;;;3.67;3.35;;;19.00;99.90;;;20.20;67.57;97569.06;10376261;28;20232;-83
2023/07/27 07:34:54;;;;;;;2.97;2.67;;;19.10;99.90;;;20.00;67.53;97566.19;10374543;28;20234;-81
2023/07/27 07:39:59;;;;;;;3.90;3.25;;;19.00;99.90;;;19.98;67.52;97554.88;10373255;28;20239;-81
2023/07/27 07:45:06;;;;;;;4.90;2.70;;;19.00;99.90;;;20.01;66.57;97554.06;10360636;28;20223;-80
2023/07/27 07:50:12;;;;;;;3.05;2.78;;;19.00;99.90;;;20.08;66.24;97553.28;10357781;28;20306;-83
2023/07/27 07:55:18;;;;;;;3.17;2.75;;;19.10;99.90;;;20.02;66.70;97542.81;10375060;28;20250;-82
2023/07/27 08:00:23;;;;;;;3.10;2.72;;;19.10;99.90;;;20.12;66.76;97541.25;10357381;28;20239;-82
2023/07/27 08:05:27;;;;;;;3.75;3.33;;;19.20;99.90;;;20.25;65.17;97541.41;10371612;28;20230;-83
2023/07/27 08:10:47;;;;;;;4.80;3.20;;;19.20;99.90;;;20.33;65.59;97535.47;10360461;28;20309;-82
2023/07/27 08:15:58;;;;;;;2.90;2.63;;;19.30;99.90;;;20.47;65.48;97529.59;10362361;28;20234;-81
2023/07/27 08:21:09;;;;;;;2.63;2.42;;;19.50;99.90;;;20.82;60.54;97525.72;10357134;28;20231;-81
2023/07/27 08:26:16;;;;;;;3.65;2.78;;;19.80;99.90;;;20.75;63.12;97519.59;10374024;28;20260;-82
2023/07/27 08:31:23;;;;;;;3.17;2.60;;;19.70;99.90;;;20.89;62.96;97507.63;10360641;28;20606;-80
2023/07/27 08:36:32;;;;;;;3.05;2.85;;;19.80;99.90;;;20.93;63.18;97505.91;10374651;28;20720;-81
2023/07/27 08:41:42;;;;;;;3.00;2.80;;;19.90;99.90;;;20.99;63.09;97513.78;10355350;28;20226;-82
2023/07/27 08:46:46;;;;;;;4.72;2.53;;;19.90;99.90;;;21.02;62.68;97508.59;10359016;28;20647;-81
2023/07/27 08:51:55;;;;;;;2.85;2.65;;;19.90;99.90;;;20.83;62.86;97514.47;10363029;28;20219;-81
2023/07/27 08:57:08;;;;;;;3.28;2.67;;;19.70;99.90;;;20.68;64.48;97509.97;10366761;28;20230;-81
2023/07/27 09:02:18;;;;;;;3.45;2.90;;;19.60;99.90;;;20.39;65.62;97514.78;10373092;28;20246;-80
2023/07/27 09:07:46;;;;;;;3.78;3.35;;;19.40;99.90;;;20.52;66.66;97523.59;10363342;28;20646;-83
2023/07/27 09:12:59;;;;;;;3.33;2.90;;;19.40;99.90;;;20.53;66.20;97508.06;10318752;28;20233;-81
2023/07/27 09:18:14;;;;;;;4.63;2.85;;;19.60;99.90;;;20.60;63.91;97499.50;10359678;28;20233;-81
2023/07/27 09:23:49;;;;;;;3.90;2.75;;;19.70;99.90;;;20.80;63.99;97496.25;10356339;28;20257;-81
2023/07/27 09:29:30;;;;;;;2.53;2.33;;;19.90;99.90;;;20.82;63.00;97489.34;10353397;28;20312;-82
2023/07/27 09:34:56;;;;;;;2.88;2.60;;;19.90;99.90;;;20.69;64.47;97483.16;10340231;28;20229;-82
2023/07/27 09:45:47;;;;;;;2.60;2.40;;;19.70;99.90;;;20.56;67.28;97496.84;10365555;28;20250;-82
2023/07/27 09:50:55;;;;;;;3.47;2.50;;;19.70;99.90;;;20.47;68.38;97492.38;10364327;28;20608;-81
2023/07/27 09:56:00;;;;;;;3.83;2.78;;;19.60;99.90;;;20.29;71.75;97497.34;10372793;28;20325;-80
2023/07/27 10:01:05;;;;;;;2.78;2.58;;;19.50;99.90;;;20.07;75.38;97491.88;10369474;28;20226;-80
2023/07/27 10:06:09;;;;;;;3.20;2.90;;;19.40;99.90;;;19.93;79.81;97509.84;10350331;28;20234;-83
2023/07/27 10:11:12;;;;;;;3.00;2.78;;;19.30;99.90;;;19.85;80.42;97500.19;10354131;28;20227;-80
2023/07/27 10:16:20;;;;;;;3.13;2.78;;;19.30;99.90;;;20.05;79.39;97500.50;10357954;28;20230;-81
2023/07/27 10:21:29;;;;;;;4.57;2.80;;;19.50;99.90;;;20.27;74.78;97504.25;10358770;28;20226;-78
2023/07/27 10:26:46;;;;;;;4.13;2.88;;;19.60;99.90;;;20.46;75.69;97495.84;10364949;28;20230;-80
2023/07/27 10:32:03;;;;;;;3.17;2.10;;;19.80;99.90;;;20.56;68.40;97489.94;10359888;28;20224;-81
2023/07/27 10:37:10;;;;;;;2.40;2.20;;;19.80;99.90;;;20.27;68.21;97480.88;10352026;28;20221;-79
2023/07/27 10:42:18;;;;;;;2.40;2.20;;;19.40;99.90;;;20.21;68.52;97472.16;10365977;28;20226;-82
2023/07/27 10:47:25;;;;;;;2.45;2.25;;;19.70;99.90;;;20.16;65.55;97465.19;10369401;28;20314;-84
2023/07/27 10:52:37;;;;;;;2.30;2.03;;;19.60;99.90;;;20.24;65.74;97461.81;10371846;28;20218;-82
2023/07/27 10:57:42;;;;;;;2.80;2.40;;;19.60;99.90;;;20.52;63.35;97456.06;10380675;28;20588;-83
2023/07/27 11:02:54;;;;;;;2.33;2.13;;;19.70;99.90;;;20.56;64.31;97442.31;10381228;28;20222;-82
2023/07/27 11:08:26;;;;;;;2.33;2.13;;;20.00;99.90;;;20.77;63.25;97433.88;10385006;28;20705;-84
2023/07/27 11:13:50;;;;;;;2.53;2.33;;;20.10;99.90;;;20.77;63.64;97428.66;10379611;28;20229;-83
2023/07/27 11:19:03;;;;;;;2.20;2.00;;;19.90;99.90;;;20.82;63.67;97427.88;10377665;28;20255;-81
2023/07/27 11:24:09;;;;;;;2.40;2.20;;;19.90;99.90;;;20.92;62.80;97411.50;10389821;28;20223;-82
2023/07/27 11:30:06;;;;;;;2.20;2.00;;;20.00;99.90;;;20.96;64.28;97404.59;10381390;28;20268;-82
2023/07/27 11:35:26;;;;;;;2.50;2.15;;;20.10;99.90;;;21.21;62.36;97399.63;10356005;28;20234;-82
2023/07/27 11:40:41;;;;;;;2.60;2.00;;;20.30;99.90;;;21.49;60.53;97396.38;10378379;28;20310;-85
2023/07/27 11:46:19;;;;;;;3.10;2.60;;;20.50;99.90;;;21.71;60.88;97388.69;10376503;28;20218;-82
2023/07/27 11:51:58;;;;;;;2.55;2.35;;;20.70;99.90;;;22.01;58.03;97372.38;10359864;28;20222;-82
2023/07/27 11:57:16;;;;;;;2.95;2.28;;;21.10;99.90;;;21.93;61.78;97366.25;10374527;28;20237;-82
2023/07/27 12:08:15;;;;;;;2.33;2.10;;;21.10;99.90;;;22.10;59.35;97366.34;10372234;28;20975;-81
2023/07/27 12:13:44;;;;;;;2.30;1.90;;;21.10;99.90;;;22.25;57.93;97358.59;10379614;28;20237;-82
2023/07/27 12:25:02;;;;;;;2.38;2.22;;;21.60;99.90;;;22.37;59.75;97361.22;10383647;28;20231;-81
2023/07/27 12:30:10;;;;;;;3.00;2.60;;;21.60;99.90;;;22.15;64.93;97357.69;10378193;28;20222;-82
2023/07/27 12:35:17;;;;;;;2.72;2.53;;;21.30;99.90;;;22.08;68.64;97365.44;10367190;28;20313;-82
2023/07/27 12:40:25;;;;;;;2.78;2.50;;;21.10;99.90;;;21.84;69.14;97368.84;10381982;28;20228;-81
2023/07/27 12:45:31;;;;;;;2.75;2.50;;;20.80;99.90;;;21.71;70.01;97365.28;10378031;28;20666;-84
2023/07/27 12:50:35;;;;;;;3.25;2.80;;;20.80;99.90;;;21.63;72.35;97364.38;10360320;28;20264;-81
2023/07/27 12:55:40;;;;;;;2.65;2.45;;;20.80;99.90;;;21.51;75.07;97360.84;10364108;28;21240;-83
2023/07/27 13:00:44;;;;;;;3.83;2.40;;;20.50;99.90;;;21.40;76.78;97359.91;10372701;28;20657;-83
2023/07/27 13:05:47;;;;;;;3.05;2.67;;;20.40;99.90;;;21.18;79.80;97352.81;10376016;28;20344;-82
2023/07/27 13:10:57;;;;;;;4.60;3.40;;;20.30;99.90;;;21.01;82.96;97357.88;10360288;28;20233;-81
2023/07/27 13:16:01;;;;;;;3.67;3.10;;;20.20;99.90;;;20.97;85.32;97354.38;10376793;28;20280;-83
2023/07/27 13:21:04;;;;;;;3.85;3.30;;;20.10;99.90;;;20.79;87.38;97351.63;10375422;28;20230;-81
2023/07/27 13:26:09;;;;;;;5.72;3.30;;;19.90;99.90;;;20.72;89.21;97352.41;10374081;28;20257;-83
2023/07/27 13:31:14;;;;;;;3.45;3.15;;;19.90;99.90;;;20.74;90.77;97355.91;10365399;28;20235;-80
2023/07/27 13:36:17;;;;;;;3.78;3.47;;;20.00;99.90;;;20.66;92.07;97351.53;10366132;28;20237;-82
2023/07/27 13:41:21;;;;;;;3.63;3.33;;;20.00;99.90;;;20.74;90.43;97345.53;10369793;28;20230;-82
2023/07/27 13:46:25;;;;;;;3.92;3.60;;;20.00;99.90;;;20.74;90.64;97341.19;10368584;28;20250;-81
2023/07/27 13:51:28;;;;;;;3.38;3.08;;;20.10;99.90;;;20.82;89.69;97343.88;10365454;28;20222;-83
2023/07/27 13:56:34;;;;;;;3.92;3.60;;;20.20;99.90;;;20.92;89.65;97345.69;10367519;28;20234;-83
2023/07/27 14:01:37;;;;;;;3.53;3.22;;;20.20;99.90;;;21.01;88.92;97343.16;10358752;28;20273;-83
2023/07/27 14:06:41;;;;;;;3.60;3.30;;;20.30;99.90;;;20.91;88.97;97341.34;10360381;28;20617;-82
2023/07/27 14:11:45;;;;;;;3.33;3.03;;;20.20;99.90;;;20.97;89.26;97341.38;10365147;28;20245;-82
2023/07/27 14:16:49;;;;;;;4.13;3.20;;;20.20;99.90;;;20.99;89.09;97344.88;10353843;28;20230;-83
2023/07/27 14:21:52;;;;;;;3.83;3.53;;;20.30;99.90;;;20.80;91.20;97335.19;10366302;28;20294;-82
2023/07/27 14:26:57;;;;;;;3.30;3.05;;;20.20;99.90;;;20.81;90.35;97334.34;10349478;28;20235;-82
2023/07/27 14:32:00;;;;;;;3.47;3.17;;;20.00;99.90;;;20.75;90.48;97337.75;10359830;28;20312;-83
2023/07/27 14:37:03;;;;;;;3.72;3.42;;;20.00;99.90;;;20.66;91.39;97333.34;10361774;28;20276;-83
2023/07/27 14:42:08;;;;;;;3.60;3.28;;;20.00;99.90;;;20.67;91.84;97340.28;10368624;28;20239;-81
2023/07/27 14:47:13;;;;;;;3.38;3.03;;;20.00;99.90;;;20.66;91.75;97343.75;10372312;28;20222;-82
2023/07/27 14:52:19;;;;;;;3.70;3.40;;;20.00;99.90;;;20.67;92.85;97335.09;10363637;28;20305;-81
2023/07/27 14:57:23;;;;;;;3.45;3.10;;;19.90;99.90;;;20.60;92.69;97333.31;10364924;28;20225;-80
2023/07/27 15:02:27;;;;;;;3.58;3.28;;;19.90;99.90;;;20.45;95.36;97331.38;10361012;28;20240;-81
2023/07/27 15:07:31;;;;;;;3.50;3.20;;;19.80;99.90;;;20.41;95.32;97331.34;10359429;28;20775;-80
2023/07/27 15:12:36;;;;;;;3.92;3.53;;;19.90;99.90;;;20.49;97.23;97332.31;10363299;28;20494;-80
2023/07/27 15:17:39;;;;;;;4.18;3.83;;;19.90;99.90;;;20.55;96.14;97319.41;10366988;28;20242;-80
2023/07/27 15:22:42;;;;;;;4.82;3.45;;;20.00;99.90;;;20.54;96.30;97321.97;10367441;28;20227;-80
2023/07/27 15:27:47;;;;;;;3.97;3.50;;;20.00;99.90;;;20.52;96.88;97313.25;10361190;28;20310;-83
2023/07/27 15:32:50;;;;;;;3.58;3.28;;;20.00;99.90;;;20.58;96.57;97311.63;10370223;28;20230;-81
2023/07/27 15:37:54;;;;;;;3.40;2.80;;;19.90;99.90;;;20.70;94.42;97303.94;10356425;28;20226;-82
2023/07/27 15:42:59;;;;;;;3.38;3.08;;;20.00;99.90;;;20.75;94.48;97303.13;10370163;28;20226;-82
2023/07/27 15:48:02;;;;;;;3.20;2.90;;;20.10;99.90;;;20.89;90.30;97298.91;10378127;28;20238;-81
2023/07/27 15:53:06;;;;;;;3.00;2.80;;;20.20;99.90;;;21.05;92.57;97292.94;10377770;28;20656;-81
2023/07/27 15:58:11;;;;;;;4.97;3.35;;;20.40;99.90;;;21.12;92.34;97281.72;10364041;28;20250;-78
2023/07/27 16:03:14;;;;;;;4.07;3.72;;;20.40;99.90;;;21.21;92.78;97274.84;10377963;28;20238;-82
2023/07/27 16:08:20;;;;;;;3.35;3.03;;;20.40;99.90;;;21.19;92.12;97268.75;10367183;28;20221;-78
2023/07/27 16:13:25;;;;;;;3.40;3.10;;;20.50;99.90;;;21.35;92.63;97262.78;10360945;28;20706;-79
2023/07/27 16:18:28;;;;;;;3.08;2.88;;;20.60;99.90;;;21.43;91.30;97255.03;10372381;28;20229;-80
2023/07/27 16:23:32;;;;;;;3.10;2.90;;;20.60;99.90;;;21.52;88.94;97253.38;10365169;28;20385;-80
2023/07/27 16:28:37;;;;;;;3.10;2.90;;;20.70;99.90;;;21.57;89.56;97251.63;10362610;28;20265;-79
2023/07/27 16:33:40;;;;;;;3.17;2.85;;;20.80;99.90;;;21.68;87.40;97256.00;10362751;28;20621;-79
2023/07/27 16:38:44;;;;;;;2.90;2.70;;;20.80;99.90;;;21.62;88.97;97250.78;10367897;28;20305;-78
2023/07/27 16:43:48;;;;;;;3.05;2.75;;;20.80;99.90;;;21.58;89.01;97240.38;10382480;28;20230;-79
2023/07/27 16:48:52;;;;;;;2.90;2.70;;;20.70;99.90;;;21.62;90.77;97248.19;10370996;28;20218;-80
2023/07/27 16:53:55;;;;;;;2.80;2.60;;;20.80;99.90;;;21.61;90.44;97247.31;10378893;28;20228;-80
2023/07/27 16:59:03;;;;;;;3.03;2.75;;;20.70;99.90;;;21.63;91.69;97244.72;10371041;28;20246;-81
2023/07/27 17:04:06;;;;;;;4.22;3.40;;;20.80;99.90;;;21.65;91.99;97243.84;10359135;28;20257;-79
2023/07/27 17:09:09;;;;;;;3.55;3.22;;;20.80;99.90;;;21.68;90.10;97253.41;10358329;28;20258;-80
2023/07/27 17:14:14;;;;;;;3.95;3.65;;;20.80;99.90;;;21.65;90.47;97256.00;10372266;28;20261;-81
2023/07/27 17:19:18;;;;;;;4.22;3.05;;;20.80;99.90;;;21.63;90.90;97242.13;10366196;28;20350;-80
2023/07/27 17:24:21;;;;;;;3.53;3.22;;;20.70;99.90;;;21.57;93.51;97246.41;10357887;28;20249;-79
2023/07/27 17:29:35;;;;;;;3.70;3.30;;;20.70;99.90;;;21.54;95.23;97248.16;10362852;28;20664;-81
2023/07/27 17:34:41;;;;;;;3.67;3.30;;;20.70;99.90;;;21.47;95.61;97247.28;10358682;28;20223;-80
2023/07/27 17:39:47;;;;;;;6.07;3.25;;;20.60;99.90;;;21.41;96.02;97247.25;10360713;28;20234;-79
2023/07/27 17:44:52;;;;;;;5.03;3.70;;;20.50;99.90;;;21.29;97.89;97244.53;10360745;28;20249;-79
2023/07/27 17:49:55;;;;;;;3.97;3.50;;;20.40;99.90;;;21.21;100.00;97244.53;10361063;28;20606;-78
2023/07/27 17:55:02;;;;;;;4.38;3.97;;;20.40;99.90;;;21.18;100.00;97243.66;10369406;28;20230;-79
2023/07/27 18:00:09;;;;;;;4.88;4.47;;;20.40;99.90;;;21.16;100.00;97235.81;10366646;28;20676;-82
2023/07/27 18:05:13;;;;;;;5.10;4.25;;;20.30;99.90;;;21.06;100.00;97240.13;10352023;28;20309;-79
2023/07/27 18:10:17;;;;;;;5.68;4.63;;;20.20;99.90;;;21.01;100.00;97239.22;10359786;28;20226;-80
2023/07/27 18:15:21;;;;;;;4.32;4.03;;;20.10;99.90;;;20.89;99.69;97242.59;10358742;28;20307;-81
2023/07/27 18:20:25;;;;;;;4.88;3.90;;;20.00;99.90;;;20.73;99.18;97242.50;10360373;28;20753;-79
2023/07/27 18:25:28;;;;;;;4.35;3.80;;;19.90;99.90;;;20.57;99.66;97250.16;10368462;28;20245;-79
2023/07/27 18:30:34;;;;;;;3.83;3.30;;;19.70;99.90;;;20.48;99.65;97245.72;10363785;28;20223;-80
2023/07/27 18:35:37;;;;;;;4.47;3.40;;;19.60;99.90;;;20.41;99.96;97243.94;10358583;28;20264;-80
2023/07/27 18:40:43;;;;;;;4.20;3.80;;;19.50;99.90;;;20.32;100.00;97243.00;10348001;28;20246;-78
2023/07/27 18:45:51;;;;;;;3.97;3.67;;;19.40;99.90;;;20.19;100.00;97253.25;10352378;28;20314;-79
2023/07/27 18:50:56;;;;;;;4.30;3.90;;;19.30;99.90;;;20.06;100.00;97247.94;10357652;28;20226;-78
2023/07/27 18:55:59;;;;;;;4.28;3.75;;;19.20;99.90;;;19.92;100.00;97263.38;10362345;28;20238;-79
2023/07/27 19:01:04;;;;;;;5.40;3.78;;;19.00;99.90;;;19.77;100.00;97259.78;10352414;28;20658;-81
2023/07/27 19:06:09;;;;;;;3.72;3.42;;;18.90;99.90;;;19.70;100.00;97262.28;10359979;28;20254;-80
2023/07/27 19:11:12;;;;;;;4.60;3.97;;;18.80;99.90;;;19.59;100.00;97269.88;10364782;28;20230;-81
2023/07/27 19:16:17;;;;;;;4.43;4.03;;;18.70;99.90;;;19.55;100.00;97252.56;10361485;28;20233;-80
2023/07/27 19:21:21;;;;;;;4.78;4.03;;;18.70;99.90;;;19.46;100.00;97268.88;10370766;28;20234;-80
2023/07/27 19:26:24;;;;;;;5.90;5.35;;;18.70;99.90;;;19.43;100.00;97293.88;10371693;28;20226;-81
2023/07/27 19:31:29;;;;;;;6.80;6.07;;;18.60;99.90;;;19.35;100.00;97307.59;10372977;28;20253;-79
2023/07/27 19:36:32;;;;;;;4.35;3.97;;;18.60;99.90;;;19.34;100.00;97315.34;10367743;28;20683;-80
2023/07/27 19:41:36;;;;;;;4.72;4.10;;;18.60;99.90;;;19.19;100.00;97310.84;10363299;28;20317;-80
2023/07/27 19:46:40;;;;;;;4.22;3.92;;;18.40;99.90;;;19.16;100.00;97308.19;10369278;28;20227;-80
2023/07/27 19:51:44;;;;;;;4.68;4.30;;;18.40;99.90;;;19.10;100.00;97302.94;10372444;28;20226;-81
2023/07/27 19:56:48;;;;;;;3.97;3.35;;;18.30;99.90;;;19.13;100.00;97297.78;10368798;28;20230;-81
2023/07/27 20:01:55;;;;;;;5.13;4.32;;;18.30;99.90;;;19.08;100.00;97286.47;10371099;28;20296;-80
2023/07/27 20:06:58;;;;;;;4.22;3.83;;;18.30;99.90;;;19.08;100.00;97296.84;10374129;28;20234;-80
2023/07/27 20:12:01;;;;;;;4.13;3.83;;;18.30;99.90;;;19.05;100.00;97299.41;10366440;28;20675;-82
2023/07/27 20:17:07;;;;;;;5.20;3.88;;;18.30;99.90;;;19.02;100.00;97301.94;10367957;28;20262;-80
2023/07/27 20:22:10;;;;;;;4.38;4.05;;;18.20;99.90;;;18.96;100.00;97309.63;10371878;28;20231;-79
2023/07/27 20:27:14;;;;;;;4.63;4.30;;;18.20;99.90;;;18.97;100.00;97319.13;10360995;28;20223;-80
2023/07/27 20:32:19;;;;;;;4.00;3.70;;;18.20;99.90;;;18.85;100.00;97305.16;10374632;28;20222;-80
2023/07/27 20:37:23;;;;;;;4.00;3.70;;;18.10;99.90;;;18.87;100.00;97302.59;10364559;28;20226;-81
2023/07/27 20:42:26;;;;;;;3.90;3.50;;;18.10;99.90;;;18.82;100.00;97297.31;10373018;28;20246;-82
2023/07/27 20:47:33;;;;;;;3.88;3.58;;;18.00;99.90;;;18.80;100.00;97295.56;10359469;28;20231;-81
2023/07/27 20:52:36;;;;;;;4.20;3.80;;;18.00;99.90;;;18.79;100.00;97297.28;10360548;28;20277;-81
2023/07/27 20:57:44;;;;;;;4.15;3.85;;;18.00;99.90;;;18.82;100.00;97286.09;10368976;28;20226;-80
2023/07/27 21:02:55;;;;;;;4.18;3.85;;;18.00;99.90;;;18.78;100.00;97287.78;10359670;28;20245;-81
2023/07/27 21:08:05;;;;;;;5.00;3.78;;;18.00;99.90;;;18.74;100.00;97288.56;10361791;28;20223;-82
2023/07/27 21:13:09;;;;;;;3.90;3.60;;;17.90;99.90;;;18.68;100.00;97283.25;10366840;28;20257;-82
2023/07/27 21:18:13;;;;;;;4.05;3.80;;;17.90;99.90;;;18.68;100.00;97275.50;10369673;28;20230;-80
2023/07/27 21:23:17;;;;;;;4.30;3.90;;;17.90;99.90;;;18.67;100.00;97284.13;10367827;28;20236;-82
2023/07/27 21:28:20;;;;;;;4.20;3.90;;;17.80;99.90;;;18.63;100.00;97284.94;10366319;28;20222;-82